Fort Abbas Weather



Fort Abbas's Current Weather

Temprature 30.56o clear sky

clear sky

Rain: 0 %

Min Temprature30.56o
Max Temprature30.56o
Humidity43
Wind Speed6.13 m/h
Sun Rise05:12:35
Sun Set18:58:32
Current Time: 24-May-2022 08:32:26
Lat/Lon: 29.1925, 72.8536




Fort Abbas's Geo Location



Fort Abbas's Weather Forecast

Time Overall Temp Min Temp Max Temp Humidity Wind Speed Rain
24-May-2022 (Tue)
11:00:00 clear sky 30.510 30.510 35.740 43 6.58 m/h 0 %
14:00:00 clear sky 35.930 35.930 39.940 27 5.11 m/h 0 %
17:00:00 clear sky 39.770 39.770 39.770 13 5.11 m/h 0 %
20:00:00 clear sky 34.640 34.640 34.640 22 6.48 m/h 0 %
23:00:00 clear sky 31.470 31.470 31.470 28 5.2 m/h 0 %
25-May-2022 (Wed)
02:00:00 clear sky 29.450 29.450 29.450 31 4.94 m/h 0 %
05:00:00 clear sky 27.970 27.970 27.970 34 3.37 m/h 0 %
08:00:00 clear sky 33.420 33.420 33.420 24 3.11 m/h 0 %
11:00:00 clear sky 38.620 38.620 38.620 17 2.04 m/h 0 %
14:00:00 clear sky 41.410 41.410 41.410 12 1.4 m/h 0 %
17:00:00 clear sky 41.990 41.990 41.990 10 3.04 m/h 0 %
20:00:00 clear sky 37.540 37.540 37.540 13 3.28 m/h 0 %
23:00:00 clear sky 34.960 34.960 34.960 15 3.88 m/h 0 %
26-May-2022 (Thu)
02:00:00 clear sky 32.150 32.150 32.150 21 4.76 m/h 0 %
05:00:00 clear sky 30.640 30.640 30.640 22 4.07 m/h 0 %
08:00:00 clear sky 35.790 35.790 35.790 21 4.49 m/h 0 %
11:00:00 clear sky 41.790 41.790 41.790 17 5.86 m/h 0 %
14:00:00 clear sky 45.350 45.350 45.350 10 5.67 m/h 0 %
17:00:00 clear sky 45.270 45.270 45.270 10 5.82 m/h 0 %
20:00:00 clear sky 40.300 40.300 40.300 13 4.86 m/h 0 %
23:00:00 clear sky 37.710 37.710 37.710 17 7.76 m/h 0 %
27-May-2022 (Fri)
02:00:00 clear sky 35.030 35.030 35.030 30 10.29 m/h 0 %
05:00:00 clear sky 30.670 30.670 30.670 50 8.76 m/h 0 %
08:00:00 clear sky 33.580 33.580 33.580 40 10.03 m/h 0 %
11:00:00 clear sky 40.610 40.610 40.610 24 10.36 m/h 0 %
14:00:00 clear sky 45.590 45.590 45.590 13 7.78 m/h 0 %
17:00:00 clear sky 46.470 46.470 46.470 9 6.21 m/h 0 %
20:00:00 clear sky 41.170 41.170 41.170 15 8.47 m/h 0 %
23:00:00 clear sky 38.750 38.750 38.750 23 10.65 m/h 0 %
28-May-2022 (Sat)
02:00:00 clear sky 33.790 33.790 33.790 42 11.67 m/h 0 %
05:00:00 clear sky 29.970 29.970 29.970 57 10.08 m/h 0 %
08:00:00 clear sky 33.950 33.950 33.950 37 11.76 m/h 0 %
11:00:00 clear sky 43.450 43.450 43.450 10 11.73 m/h 0 %
14:00:00 clear sky 47.370 47.370 47.370 2 12.17 m/h 0 %
17:00:00 clear sky 46.430 46.430 46.430 1 9.97 m/h 0 %
20:00:00 clear sky 39.180 39.180 39.180 2 6.66 m/h 0 %
23:00:00 clear sky 36.570 36.570 36.570 3 5.99 m/h 0 %
29-May-2022 (Sun)
02:00:00 clear sky 34.500 34.500 34.500 27 9.75 m/h 0 %
05:00:00 clear sky 30.730 30.730 30.730 38 9.46 m/h 0 %
08:00:00 clear sky 35.460 35.460 35.460 14 9.16 m/h 0 %

Famous Cities (61)